< Typhoon 195318 1953 Season Typhoon 195320 >
Typhoon 195319 (BETTY)
General InformationTrack Information on Google Maps || Disaster Info.ResourceGoogle EarthGE AnimationAtom FeedGeoJSON
Detalied Best Track (Time Zone = UTC)
Year Month Day Hour Lat. Long. Pressure (hPa) Wind (kt) Class Image Chart
1953 10 26 06 7.8 132.5 1006 0 2 -- Chart
1953 10 26 12 8.5 130.5 1008 0 2 -- Chart
1953 10 26 18 9.8 128.6 1006 0 2 -- Chart
1953 10 27 00 11.6 126.8 1008 0 2 -- Chart
1953 10 27 06 12.8 125.0 1005 0 2 -- Chart
1953 10 27 12 14.4 123.1 1005 0 2 -- Chart
1953 10 27 18 14.5 122.5 1005 0 2 -- Chart
1953 10 28 00 14.6 121.8 1004 0 9 -- Chart
1953 10 28 06 15.0 120.5 1000 0 9 -- Chart
1953 10 28 12 15.2 119.8 1000 0 9 -- Chart
1953 10 28 18 15.5 118.9 990 0 9 -- Chart
1953 10 29 00 16.0 118.0 988 0 9 -- Chart
1953 10 29 06 16.4 117.5 982 0 9 -- Chart
1953 10 29 12 17.3 117.2 970 0 9 -- Chart
1953 10 29 18 17.2 116.5 970 0 9 -- Chart
1953 10 30 00 16.9 116.0 966 0 9 -- Chart
1953 10 30 06 17.0 115.4 970 0 9 -- Chart
1953 10 30 12 17.0 114.8 970 0 9 -- Chart
1953 10 30 18 17.0 114.2 970 0 9 -- Chart
1953 10 31 00 17.0 113.5 970 0 9 -- Chart
1953 10 31 06 17.5 112.6 970 0 9 -- Chart
1953 10 31 12 17.6 111.5 970 0 9 -- Chart
1953 10 31 18 17.7 110.5 970 0 9 -- Chart
1953 11 1 00 18.2 109.5 970 0 9 -- Chart
1953 11 1 06 18.3 108.5 970 0 9 -- Chart
1953 11 1 12 18.5 107.5 970 0 9 -- Chart
1953 11 1 18 18.6 106.5 970 0 9 -- Chart
1953 11 2 00 18.8 105.3 980 0 9 -- Chart
1953 11 2 06 18.2 104.7 1000 0 9 -- Chart
1953 11 2 12 18.1 104.3 1000 0 2 -- Chart
Japan Meteorological Agency Best Track Data | Correction Date : 2013-03-19
< Typhoon 195318 1953 Season Typhoon 195320 >

Help